createdAt,value
2023-01-20T00:00:46.608Z,100077.06
2023-01-20T00:03:16.223Z,100042.00
2023-01-20T00:05:52.640Z,100068.56
2023-01-20T00:08:24.521Z,100015.50
2023-01-20T00:10:54.184Z,100101.34
2023-01-20T00:13:24.875Z,100107.88
2023-01-20T00:15:55.454Z,99761.47
2023-01-20T00:18:25.174Z,100054.22
2023-01-20T00:20:54.971Z,99810.88
2023-01-20T00:23:26.658Z,100108.91
2023-01-20T00:25:56.318Z,99956.75
2023-01-20T00:28:25.911Z,99972.63
2023-01-20T00:30:55.697Z,99987.28
2023-01-20T00:33:33.424Z,100098.69
2023-01-20T00:36:03.063Z,99989.81
2023-01-20T00:38:35.282Z,100115.28
2023-01-20T00:41:04.049Z,100055.19
2023-01-20T00:43:32.622Z,100042.53
2023-01-20T00:46:01.323Z,100127.81
2023-01-20T00:48:35.932Z,99876.06
2023-01-20T00:51:06.920Z,100103.31
2023-01-20T00:53:38.504Z,100014.41
2023-01-20T00:56:07.800Z,99970.16
2023-01-20T00:58:37.397Z,100149.69
2023-01-20T01:01:07.485Z,99806.06
2023-01-20T01:03:37.128Z,100025.47
2023-01-20T01:06:12.224Z,100136.88
2023-01-20T01:08:42.850Z,100154.00
2023-01-20T01:11:13.787Z,100146.94
2023-01-20T01:13:50.198Z,100129.91
2023-01-20T01:16:18.933Z,100131.38
2023-01-20T01:18:47.522Z,100152.06
2023-01-20T01:21:18.470Z,100012.97
2023-01-20T01:23:48.728Z,100158.38
2023-01-20T01:26:17.483Z,100175.22
2023-01-20T01:28:50.302Z,100082.81
2023-01-20T01:31:22.109Z,100077.44
2023-01-20T01:33:51.753Z,100203.94
2023-01-20T01:36:20.522Z,100144.19
2023-01-20T01:38:58.420Z,100217.34
2023-01-20T01:41:28.301Z,100171.59
2023-01-20T01:44:06.983Z,100232.22
2023-01-20T01:46:35.573Z,100223.25
2023-01-20T01:49:10.426Z,100234.03
2023-01-20T01:51:47.953Z,100249.13
2023-01-20T01:54:21.408Z,100177.00
2023-01-20T01:56:51.236Z,100150.59
2023-01-20T01:59:22.407Z,100272.56
2023-01-20T02:01:54.054Z,100169.28
2023-01-20T02:04:24.518Z,100282.47
2023-01-20T02:06:56.509Z,100282.34
2023-01-20T02:09:28.893Z,100282.47
2023-01-20T02:12:02.067Z,100283.41
2023-01-20T02:14:36.383Z,99994.72
2023-01-20T02:17:14.106Z,100265.81
2023-01-20T02:20:32.249Z,100297.88
2023-01-20T02:23:09.430Z,100291.97
2023-01-20T02:26:12.875Z,100251.03
2023-01-20T02:29:15.744Z,100134.19
2023-01-20T02:32:12.674Z,100278.69
2023-01-20T02:34:47.498Z,100318.38
2023-01-20T02:37:18.465Z,100300.84
2023-01-20T02:39:58.469Z,100317.41
2023-01-20T02:42:33.889Z,100320.06
2023-01-20T02:45:07.861Z,100300.88
2023-01-20T02:47:51.591Z,100265.41
2023-01-20T02:50:24.275Z,100309.00
2023-01-20T02:52:56.282Z,100167.91
2023-01-20T02:55:31.456Z,100352.47
2023-01-20T02:58:04.789Z,100279.75
2023-01-20T03:00:40.645Z,100114.31
2023-01-20T03:03:14.576Z,100283.44
2023-01-20T03:05:49.704Z,100368.00
2023-01-20T03:08:21.598Z,100368.22
2023-01-20T03:10:52.982Z,100354.47
2023-01-20T03:13:25.546Z,100379.22
2023-01-20T03:16:00.618Z,100330.84
2023-01-20T03:18:34.205Z,100371.91
2023-01-20T03:21:05.324Z,100156.50
2023-01-20T03:23:37.485Z,100388.91
2023-01-20T03:26:10.837Z,100394.72
2023-01-20T03:28:40.716Z,100396.31
2023-01-20T03:31:19.584Z,100387.56
2023-01-20T03:33:54.652Z,100335.38
2023-01-20T03:36:34.314Z,100377.41
2023-01-20T03:39:04.117Z,100409.75
2023-01-20T03:41:44.030Z,100273.19
2023-01-20T03:44:23.833Z,100188.41
2023-01-20T03:47:03.602Z,100419.88
2023-01-20T03:49:38.410Z,100388.72
2023-01-20T03:52:15.139Z,100299.66
2023-01-20T03:54:50.657Z,100383.53
2023-01-20T03:57:23.105Z,100288.69
2023-01-20T03:59:53.928Z,100393.66
2023-01-20T04:02:25.429Z,100443.00
2023-01-20T04:04:56.104Z,100408.16
2023-01-20T04:07:28.017Z,100288.38
2023-01-20T04:10:01.643Z,100441.09
2023-01-20T04:12:31.595Z,100381.38
2023-01-20T04:15:02.418Z,100298.72
2023-01-20T04:17:32.479Z,100456.75
2023-01-20T04:20:10.577Z,100357.69
2023-01-20T04:22:49.143Z,100465.59
2023-01-20T04:25:25.535Z,100462.31
2023-01-20T04:27:55.115Z,100473.56
2023-01-20T04:30:24.843Z,100481.81
2023-01-20T04:32:55.407Z,100200.38
2023-01-20T04:35:25.927Z,100432.38
2023-01-20T04:37:54.518Z,100405.44
2023-01-20T04:40:24.067Z,100477.47
2023-01-20T04:42:52.947Z,100515.50
2023-01-20T04:45:22.826Z,100516.16
2023-01-20T04:47:51.555Z,100525.38
2023-01-20T04:50:21.371Z,100285.50
2023-01-20T04:52:56.116Z,100348.09
2023-01-20T04:55:26.600Z,100535.97
2023-01-20T04:57:55.295Z,100551.44
2023-01-20T05:00:23.983Z,100553.88
2023-01-20T05:02:52.626Z,100553.59
2023-01-20T05:05:21.529Z,100563.00
2023-01-20T05:07:53.433Z,100562.91
2023-01-20T05:10:22.465Z,100390.03
2023-01-20T05:12:50.913Z,100581.19
2023-01-20T05:15:19.589Z,100599.44
2023-01-20T05:17:48.328Z,100587.94
2023-01-20T05:20:19.167Z,100599.06
2023-01-20T05:22:48.156Z,100611.13
2023-01-20T05:25:18.316Z,100615.53
2023-01-20T05:27:48.187Z,100513.44
2023-01-20T05:30:17.133Z,100627.50
2023-01-20T05:32:46.355Z,100636.69
2023-01-20T05:35:15.247Z,100455.47
2023-01-20T05:37:43.923Z,100624.78
2023-01-20T05:40:13.805Z,100576.13
2023-01-20T05:42:43.722Z,100660.41
2023-01-20T05:45:13.311Z,100656.06
2023-01-20T05:47:42.013Z,100568.19
2023-01-20T05:50:11.938Z,100668.03
2023-01-20T05:52:40.470Z,100669.34
2023-01-20T05:55:09.921Z,100370.56
2023-01-20T05:57:39.790Z,100687.97
2023-01-20T06:00:12.800Z,100677.78
2023-01-20T06:02:41.479Z,100686.63
2023-01-20T06:05:10.426Z,100707.56
2023-01-20T06:07:39.063Z,100665.31
2023-01-20T06:10:08.903Z,100716.47
2023-01-20T06:12:37.597Z,100706.97
2023-01-20T06:15:07.306Z,100718.19
2023-01-20T06:17:37.498Z,100711.13
2023-01-20T06:20:06.905Z,100730.50
2023-01-20T06:22:35.479Z,100723.47
2023-01-20T06:25:04.087Z,100728.63
2023-01-20T06:27:32.679Z,100746.91
2023-01-20T06:30:01.633Z,100738.16
2023-01-20T06:32:30.222Z,100690.63
2023-01-20T06:35:00.275Z,100738.66
2023-01-20T06:37:28.977Z,100736.88
2023-01-20T06:39:57.792Z,100655.69
2023-01-20T06:42:26.678Z,100751.28
2023-01-20T06:44:55.188Z,100753.91
2023-01-20T06:47:23.769Z,100754.66
2023-01-20T06:49:52.277Z,100762.56
2023-01-20T06:52:22.302Z,100676.88
2023-01-20T06:54:51.314Z,100770.41
2023-01-20T06:57:19.906Z,100596.47
2023-01-20T06:59:48.387Z,100596.66
2023-01-20T07:02:17.046Z,100781.97
2023-01-20T07:04:46.084Z,100783.59
2023-01-20T07:07:15.085Z,100787.75
2023-01-20T07:09:45.045Z,100797.44
2023-01-20T07:12:13.579Z,100795.75
2023-01-20T07:14:42.070Z,100808.84
2023-01-20T07:17:13.195Z,100781.78
2023-01-20T07:19:41.877Z,100821.69
2023-01-20T07:22:10.661Z,100825.16
2023-01-20T07:24:39.326Z,100837.25
2023-01-20T07:27:09.295Z,100838.63
2023-01-20T07:29:38.228Z,100833.00
2023-01-20T07:32:06.895Z,100853.44
2023-01-20T07:34:35.828Z,100853.44
2023-01-20T07:37:04.400Z,100856.94
2023-01-20T07:39:32.988Z,100821.22
2023-01-20T07:42:02.033Z,100861.56
2023-01-20T07:44:33.709Z,100858.53
2023-01-20T07:47:02.234Z,100865.25
2023-01-20T07:49:31.103Z,100874.44
2023-01-20T07:51:59.753Z,100885.34
2023-01-20T07:54:28.889Z,100851.56
2023-01-20T07:56:57.944Z,100897.47
2023-01-20T07:59:26.682Z,100927.94
2023-01-20T08:01:56.778Z,100912.66
2023-01-20T08:04:25.814Z,100916.81
2023-01-20T08:06:54.373Z,100799.63
2023-01-20T08:09:23.112Z,100936.19
2023-01-20T08:11:51.630Z,100934.28
2023-01-20T08:14:20.230Z,100882.09
2023-01-20T08:16:48.905Z,100946.25
2023-01-20T08:19:19.629Z,100770.09
2023-01-20T08:21:48.217Z,100937.94
2023-01-20T08:24:16.919Z,100961.44
2023-01-20T08:26:45.439Z,100960.53
2023-01-20T08:29:14.682Z,100959.00
2023-01-20T08:31:43.388Z,100967.19
2023-01-20T08:34:12.398Z,100938.56
2023-01-20T08:36:43.070Z,100891.09
2023-01-20T08:39:14.958Z,100982.78
2023-01-20T08:41:45.501Z,100983.22
2023-01-20T08:44:14.620Z,100984.03
2023-01-20T08:46:44.039Z,100986.91
2023-01-20T08:49:14.695Z,100914.34
2023-01-20T08:51:45.923Z,100989.78
2023-01-20T08:54:15.357Z,100855.63
2023-01-20T08:56:43.958Z,100986.50
2023-01-20T08:59:12.693Z,100998.63
2023-01-20T09:01:42.320Z,101003.41
2023-01-20T09:04:11.364Z,100999.88
2023-01-20T09:06:42.501Z,100999.63
2023-01-20T09:09:13.706Z,100999.81
2023-01-20T09:11:45.014Z,101009.38
2023-01-20T09:14:14.098Z,101017.25
2023-01-20T09:16:42.578Z,101015.97
2023-01-20T09:19:11.165Z,100883.28
2023-01-20T09:21:39.748Z,100997.88
2023-01-20T09:24:09.179Z,100891.88
2023-01-20T09:26:41.819Z,100969.25
2023-01-20T09:29:13.345Z,101047.44
2023-01-20T09:31:45.442Z,101049.09
2023-01-20T09:34:19.707Z,101014.25
2023-01-20T09:36:51.929Z,101066.53
2023-01-20T09:39:39.022Z,101061.69
2023-01-20T09:42:42.896Z,101042.81
2023-01-20T09:45:25.330Z,100962.13
2023-01-20T09:48:02.447Z,101083.44
2023-01-20T09:50:58.626Z,101069.63
2023-01-20T09:53:48.975Z,101096.63
2023-01-20T09:56:21.461Z,101075.91
2023-01-20T09:58:57.289Z,101088.84
2023-01-20T10:01:31.981Z,101035.25
2023-01-20T10:04:06.906Z,101096.13
2023-01-20T10:06:42.004Z,101060.00
2023-01-20T10:09:22.804Z,101097.31
2023-01-20T10:11:56.894Z,101105.41
2023-01-20T10:14:33.065Z,101106.13
2023-01-20T10:17:08.769Z,101079.47
2023-01-20T10:19:43.018Z,101112.97
2023-01-20T10:22:14.809Z,101105.88
2023-01-20T10:24:50.026Z,101108.44
2023-01-20T10:27:18.815Z,101057.44
2023-01-20T10:29:54.453Z,101065.59
2023-01-20T10:32:32.539Z,101078.84
2023-01-20T10:35:09.335Z,101105.28
2023-01-20T10:37:38.278Z,101086.63
2023-01-20T10:40:15.375Z,101108.69
2023-01-20T10:42:48.987Z,101105.66
2023-01-20T10:45:26.627Z,101104.81
2023-01-20T10:48:06.896Z,101114.84
2023-01-20T10:50:49.051Z,101009.78
2023-01-20T10:53:41.220Z,101060.22
2023-01-20T10:56:33.066Z,101042.50
2023-01-20T10:59:05.872Z,101079.56
2023-01-20T11:01:37.714Z,101060.06
2023-01-20T11:04:18.835Z,101085.94
2023-01-20T11:06:51.286Z,100987.38
2023-01-20T11:09:25.622Z,101079.66
2023-01-20T11:11:54.416Z,100971.09
2023-01-20T11:14:24.278Z,101070.25
2023-01-20T11:17:02.656Z,101028.84
2023-01-20T11:19:46.587Z,101048.06
2023-01-20T11:22:20.883Z,101067.84
2023-01-20T11:24:50.171Z,101068.22
2023-01-20T11:27:21.826Z,101057.31
2023-01-20T11:29:53.826Z,101035.34
2023-01-20T11:32:30.157Z,101066.31
2023-01-20T11:34:59.236Z,101058.44
2023-01-20T11:37:36.067Z,101011.47
2023-01-20T11:40:23.594Z,100770.78
2023-01-20T11:42:53.793Z,101045.88
2023-01-20T11:45:32.782Z,101054.19
2023-01-20T11:48:16.467Z,101043.34
2023-01-20T11:50:50.227Z,101048.78
2023-01-20T11:53:21.751Z,101043.22
2023-01-20T11:55:53.185Z,101049.28
2023-01-20T11:58:24.820Z,101051.81
2023-01-20T12:01:02.340Z,101042.53
2023-01-20T12:04:02.007Z,100985.72
2023-01-20T12:06:34.239Z,101034.19
2023-01-20T12:09:06.535Z,101036.97
2023-01-20T12:11:38.475Z,101030.94
2023-01-20T12:14:25.176Z,101030.59
2023-01-20T12:17:28.677Z,101038.44
2023-01-20T12:20:11.260Z,101033.09
2023-01-20T12:22:49.414Z,100835.41
2023-01-20T12:25:22.081Z,101038.31
2023-01-20T12:27:54.701Z,100877.38
2023-01-20T12:30:50.841Z,101028.41
2023-01-20T12:33:26.437Z,101029.72
2023-01-20T12:36:21.691Z,101032.13
2023-01-20T12:39:11.669Z,100974.25
2023-01-20T12:42:08.613Z,101021.16
2023-01-20T12:44:44.691Z,101023.94
2023-01-20T12:47:27.757Z,101031.78
2023-01-20T12:50:18.297Z,101008.19
2023-01-20T12:53:00.016Z,101038.44
2023-01-20T12:55:40.789Z,100957.34
2023-01-20T12:58:20.480Z,100969.38
2023-01-20T13:01:30.092Z,101049.75
2023-01-20T13:04:25.058Z,101042.56
2023-01-20T13:07:15.699Z,100974.22
2023-01-20T13:10:03.532Z,101049.13
2023-01-20T13:12:46.576Z,101056.34
2023-01-20T13:15:20.601Z,100955.94
2023-01-20T13:18:17.036Z,101044.66
2023-01-20T13:20:47.580Z,101041.03
2023-01-20T13:23:20.245Z,100907.16
2023-01-20T13:25:52.695Z,101028.81
2023-01-20T13:28:24.229Z,101028.56
2023-01-20T13:30:55.218Z,101029.09
2023-01-20T13:33:37.515Z,101040.59
2023-01-20T13:36:17.605Z,100822.28
2023-01-20T13:38:48.632Z,100931.16
2023-01-20T13:41:49.877Z,101027.22
2023-01-20T13:44:35.787Z,101029.16
2023-01-20T13:47:10.363Z,101019.47
2023-01-20T13:49:52.467Z,101027.94
2023-01-20T13:52:58.260Z,101032.00
2023-01-20T13:55:30.445Z,100926.66
2023-01-20T13:58:00.081Z,101031.81
2023-01-20T14:00:30.208Z,101033.63
2023-01-20T14:02:59.300Z,100946.59
2023-01-20T14:05:31.929Z,101034.69
2023-01-20T14:08:01.184Z,101036.88
2023-01-20T14:10:30.169Z,101041.72
2023-01-20T14:12:58.891Z,101040.88
2023-01-20T14:15:40.151Z,101051.66
2023-01-20T14:18:18.890Z,101034.34
2023-01-20T14:21:03.843Z,101037.22
2023-01-20T14:23:40.032Z,101041.81
2023-01-20T14:26:13.475Z,101039.03
2023-01-20T14:28:45.707Z,101041.69
2023-01-20T14:31:21.743Z,101058.38
2023-01-20T14:33:56.394Z,101011.88
2023-01-20T14:36:27.302Z,100984.16
2023-01-20T14:38:58.883Z,101066.59
2023-01-20T14:41:36.748Z,101061.63
2023-01-20T14:44:16.803Z,101065.13
2023-01-20T14:46:48.021Z,100952.53
2023-01-20T14:49:18.967Z,101066.31
2023-01-20T14:51:49.852Z,100862.44
2023-01-20T14:54:35.460Z,101077.16
2023-01-20T14:57:19.282Z,101076.91
2023-01-20T14:59:47.953Z,101005.53
2023-01-20T15:02:28.122Z,101080.88
2023-01-20T15:04:57.542Z,101088.44
2023-01-20T15:07:27.010Z,101090.69
2023-01-20T15:10:02.870Z,100999.56
2023-01-20T15:12:42.761Z,101057.22
2023-01-20T15:15:20.550Z,101087.34
2023-01-20T15:18:17.836Z,100941.38
2023-01-20T15:20:49.883Z,101105.22
2023-01-20T15:23:32.500Z,100988.50
2023-01-20T15:26:09.093Z,101107.03
2023-01-20T15:28:42.890Z,101112.56
2023-01-20T15:31:15.031Z,101113.66
2023-01-20T15:33:45.759Z,101109.19
2023-01-20T15:36:23.734Z,101118.22
2023-01-20T15:38:52.412Z,101124.81
2023-01-20T15:41:21.666Z,101136.50
2023-01-20T15:43:52.621Z,101121.63
2023-01-20T15:46:21.559Z,101122.06
2023-01-20T15:48:51.723Z,101096.19
2023-01-20T15:51:21.911Z,101130.25
2023-01-20T15:53:50.582Z,101132.50
2023-01-20T15:56:22.817Z,101145.22
2023-01-20T15:58:52.434Z,101154.59
2023-01-20T16:01:24.149Z,101120.28
2023-01-20T16:03:56.008Z,101161.66
2023-01-20T16:06:28.935Z,101153.69
2023-01-20T16:08:57.779Z,101158.38
2023-01-20T16:11:26.279Z,101160.56
2023-01-20T16:13:55.060Z,101158.34
2023-01-20T16:16:27.383Z,101155.06
2023-01-20T16:18:59.500Z,101161.72
2023-01-20T16:21:28.204Z,101164.47
2023-01-20T16:23:56.830Z,101067.69
2023-01-20T16:26:27.622Z,101164.22
2023-01-20T16:28:57.778Z,101169.09
2023-01-20T16:31:28.800Z,101162.50
2023-01-20T16:33:58.992Z,101161.75
2023-01-20T16:36:27.616Z,101170.19
2023-01-20T16:38:56.852Z,101179.19
2023-01-20T16:41:27.571Z,101179.81
2023-01-20T16:43:57.109Z,101167.50
2023-01-20T16:46:27.860Z,101171.19
2023-01-20T16:49:02.046Z,101172.41
2023-01-20T16:51:32.118Z,101181.78
2023-01-20T16:54:01.382Z,101190.25
2023-01-20T16:56:31.735Z,101167.91
2023-01-20T16:59:02.177Z,101192.88
2023-01-20T17:01:33.472Z,101191.47
2023-01-20T17:04:04.945Z,101205.31
2023-01-20T17:06:37.268Z,101203.88
2023-01-20T17:09:07.331Z,101202.06
2023-01-20T17:11:38.253Z,101201.44
2023-01-20T17:14:08.740Z,101206.16
2023-01-20T17:16:37.885Z,101208.03
2023-01-20T17:19:08.242Z,101127.66
2023-01-20T17:21:40.065Z,101185.31
2023-01-20T17:24:09.293Z,101089.47
2023-01-20T17:26:38.760Z,101198.63
2023-01-20T17:29:08.825Z,101222.25
2023-01-20T17:31:38.004Z,101222.91
2023-01-20T17:34:12.287Z,101231.19
2023-01-20T17:36:41.925Z,101234.03
2023-01-20T17:39:12.053Z,101242.13
2023-01-20T17:41:41.549Z,101236.34
2023-01-20T17:44:10.139Z,101245.44
2023-01-20T17:46:39.797Z,101233.66
2023-01-20T17:49:11.316Z,101192.13
2023-01-20T17:51:41.087Z,101122.13
2023-01-20T17:54:10.900Z,101019.16
2023-01-20T17:56:40.739Z,101258.75
2023-01-20T17:59:09.523Z,101263.50
2023-01-20T18:01:38.282Z,101091.81
2023-01-20T18:04:10.391Z,101237.28
2023-01-20T18:06:40.785Z,101258.94
2023-01-20T18:09:09.741Z,101258.34
2023-01-20T18:11:39.371Z,101171.88
2023-01-20T18:14:08.920Z,101266.59
2023-01-20T18:16:40.483Z,101274.53
2023-01-20T18:19:12.387Z,101229.81
2023-01-20T18:21:46.555Z,101254.84
2023-01-20T18:24:16.161Z,101171.66
2023-01-20T18:26:46.077Z,100981.03
2023-01-20T18:29:17.021Z,101240.34
2023-01-20T18:31:47.426Z,101295.91
2023-01-20T18:34:17.795Z,101294.13
2023-01-20T18:36:49.471Z,101277.16
2023-01-20T18:39:20.390Z,101112.78
2023-01-20T18:41:51.535Z,101300.41
2023-01-20T18:44:20.775Z,101302.22
2023-01-20T18:46:50.764Z,101302.22
2023-01-20T18:49:21.027Z,101299.81
2023-01-20T18:51:51.278Z,101237.91
2023-01-20T18:54:22.256Z,101315.16
2023-01-20T18:56:52.351Z,101279.00
2023-01-20T18:59:21.406Z,101267.56
2023-01-20T19:01:51.035Z,101325.81
2023-01-20T19:04:19.640Z,101264.78
2023-01-20T19:06:50.964Z,101329.47
2023-01-20T19:09:20.562Z,101037.84
2023-01-20T19:11:50.571Z,101242.63
2023-01-20T19:14:19.280Z,101330.53
2023-01-20T19:16:49.579Z,101320.75
2023-01-20T19:19:19.337Z,101301.63
2023-01-20T19:21:53.402Z,101309.56
2023-01-20T19:24:23.135Z,101324.28
2023-01-20T19:26:52.716Z,101321.50
2023-01-20T19:29:22.233Z,101302.81
2023-01-20T19:31:52.509Z,101286.91
2023-01-20T19:34:22.261Z,101339.69
2023-01-20T19:36:50.841Z,101291.41
2023-01-20T19:39:20.883Z,101279.41
2023-01-20T19:41:50.597Z,101309.25
2023-01-20T19:44:21.773Z,101148.63
2023-01-20T19:46:50.441Z,101324.53
2023-01-20T19:49:19.115Z,101322.13
2023-01-20T19:51:48.084Z,100981.94
2023-01-20T19:54:20.344Z,101330.66
2023-01-20T19:56:49.980Z,101327.09
2023-01-20T19:59:18.569Z,101147.84
2023-01-20T20:01:47.392Z,101317.47
2023-01-20T20:04:20.652Z,101066.13
2023-01-20T20:06:50.345Z,101198.22
2023-01-20T20:09:23.604Z,101238.38
2023-01-20T20:11:56.345Z,101342.63
2023-01-20T20:14:27.452Z,101348.06
2023-01-20T20:16:56.397Z,101348.13
2023-01-20T20:19:26.283Z,101323.47
2023-01-20T20:21:56.539Z,101333.88
2023-01-20T20:24:28.653Z,101352.47
2023-01-20T20:26:57.716Z,101089.91
2023-01-20T20:29:28.117Z,101331.53
2023-01-20T20:31:57.882Z,101304.09
2023-01-20T20:34:26.659Z,101354.59
2023-01-20T20:36:55.978Z,101312.69
2023-01-20T20:39:24.684Z,101361.88
2023-01-20T20:41:56.656Z,101178.53
2023-01-20T20:44:25.247Z,101325.25
2023-01-20T20:46:53.845Z,101331.38
2023-01-20T20:49:22.532Z,101300.91
2023-01-20T20:51:51.089Z,101267.63
2023-01-20T20:54:20.021Z,101330.75
2023-01-20T20:56:48.907Z,101161.81
2023-01-20T20:59:23.140Z,101331.59
2023-01-20T21:01:54.493Z,101296.56
2023-01-20T21:04:25.030Z,101265.22
2023-01-20T21:06:54.918Z,101320.91
2023-01-20T21:09:23.613Z,101318.34
2023-01-20T21:11:52.520Z,101318.09
2023-01-20T21:14:23.966Z,101317.09
2023-01-20T21:16:52.771Z,101317.09
2023-01-20T21:19:23.577Z,101320.44
2023-01-20T21:21:54.311Z,101111.34
2023-01-20T21:24:26.183Z,101283.41
2023-01-20T21:26:54.728Z,101315.84
2023-01-20T21:29:26.482Z,101314.38
2023-01-20T21:31:56.216Z,101294.22
2023-01-20T21:34:25.834Z,101310.41
2023-01-20T21:36:54.467Z,101318.56
2023-01-20T21:39:23.933Z,101316.69
2023-01-20T21:41:52.519Z,101308.25
2023-01-20T21:44:29.022Z,101317.56
2023-01-20T21:47:01.189Z,101291.13
2023-01-20T21:49:48.162Z,101306.38
2023-01-20T21:52:35.876Z,101310.88
2023-01-20T21:55:05.399Z,101311.91
2023-01-20T21:57:34.366Z,101307.50
2023-01-20T22:00:04.492Z,101301.19
2023-01-20T22:02:44.972Z,101303.94
2023-01-20T22:05:14.935Z,101122.44
2023-01-20T22:07:43.893Z,101221.41
2023-01-20T22:10:19.163Z,101227.94
2023-01-20T22:12:48.863Z,101305.31
2023-01-20T22:15:17.531Z,101263.53
2023-01-20T22:17:47.652Z,101308.25
2023-01-20T22:20:17.528Z,101303.38
2023-01-20T22:22:46.763Z,101311.63
2023-01-20T22:25:15.886Z,101322.31
2023-01-20T22:27:44.479Z,101311.69
2023-01-20T22:30:14.912Z,101138.00
2023-01-20T22:32:44.818Z,101182.72
2023-01-20T22:35:14.888Z,101268.72
2023-01-20T22:37:43.715Z,101321.59
2023-01-20T22:40:14.097Z,101183.81
2023-01-20T22:42:45.951Z,101308.25
2023-01-20T22:45:16.760Z,101210.31
2023-01-20T22:47:46.321Z,101309.28
2023-01-20T22:50:16.875Z,101320.44
2023-01-20T22:52:45.613Z,101105.38
2023-01-20T22:55:14.085Z,101310.66
2023-01-20T22:57:42.613Z,101318.28
2023-01-20T23:00:12.712Z,101162.50
2023-01-20T23:02:41.881Z,101279.41
2023-01-20T23:05:12.380Z,101307.31
2023-01-20T23:07:47.242Z,101318.56
2023-01-20T23:10:36.043Z,101286.63
2023-01-20T23:13:04.762Z,101273.44
2023-01-20T23:15:34.282Z,101321.34
2023-01-20T23:18:02.896Z,101310.66
2023-01-20T23:20:31.524Z,101103.13
2023-01-20T23:23:01.470Z,101236.59
2023-01-20T23:25:31.267Z,101253.19
2023-01-20T23:27:59.883Z,101102.41
2023-01-20T23:30:28.474Z,101320.13
2023-01-20T23:32:57.281Z,101314.00
2023-01-20T23:35:27.429Z,101301.28
2023-01-20T23:37:56.020Z,101262.75
2023-01-20T23:40:27.441Z,101278.09
2023-01-20T23:42:56.057Z,101291.28
2023-01-20T23:45:24.613Z,101313.31
2023-01-20T23:47:53.675Z,101297.56
2023-01-20T23:50:24.366Z,101292.97
2023-01-20T23:52:52.959Z,101296.41
2023-01-20T23:55:21.655Z,101300.81
2023-01-20T23:57:52.838Z,101268.16
